createdAt,value
2018-09-13T00:00:04.190Z,71
2018-09-13T00:00:16.668Z,71
2018-09-13T00:00:29.216Z,71
2018-09-13T00:00:41.642Z,71
2018-09-13T00:00:54.073Z,71
2018-09-13T00:01:06.499Z,71
2018-09-13T00:01:18.907Z,71
2018-09-13T00:01:31.306Z,71
2018-09-13T00:01:43.712Z,71
2018-09-13T00:01:56.159Z,71
2018-09-13T00:02:08.612Z,71
2018-09-13T00:02:21.035Z,72
2018-09-13T00:02:33.434Z,72
2018-09-13T00:02:45.875Z,72
2018-09-13T00:02:58.283Z,72
2018-09-13T00:03:10.673Z,72
2018-09-13T00:03:23.377Z,72
2018-09-13T00:03:35.808Z,72
2018-09-13T00:03:48.206Z,72
2018-09-13T00:04:00.614Z,72
2018-09-13T00:04:13.021Z,72
2018-09-13T00:04:25.439Z,72
2018-09-13T00:04:37.827Z,72
2018-09-13T00:04:50.301Z,72
2018-09-13T00:05:02.703Z,72
2018-09-13T00:05:15.123Z,72
2018-09-13T00:05:27.516Z,72
2018-09-13T00:05:39.990Z,72
2018-09-13T00:05:52.829Z,71
2018-09-13T00:06:05.847Z,71
2018-09-13T00:06:18.270Z,71
2018-09-13T00:06:30.708Z,72
2018-09-13T00:06:43.149Z,72
2018-09-13T00:06:55.562Z,72
2018-09-13T00:07:07.991Z,72
2018-09-13T00:07:20.404Z,72
2018-09-13T00:07:32.842Z,72
2018-09-13T00:07:45.566Z,72
2018-09-13T00:07:57.990Z,72
2018-09-13T00:08:10.405Z,72
2018-09-13T00:08:22.837Z,72
2018-09-13T00:08:35.238Z,72
2018-09-13T00:08:47.669Z,72
2018-09-13T00:09:00.075Z,72
2018-09-13T00:09:12.480Z,72
2018-09-13T00:09:24.961Z,72
2018-09-13T00:09:37.425Z,72
2018-09-13T00:09:50.219Z,72
2018-09-13T00:10:02.665Z,71
2018-09-13T00:10:15.072Z,71
2018-09-13T00:10:27.587Z,71
2018-09-13T00:10:40.035Z,71
2018-09-13T00:10:52.439Z,71
2018-09-13T00:11:04.856Z,71
2018-09-13T00:11:17.304Z,71
2018-09-13T00:11:29.975Z,71
2018-09-13T00:11:42.519Z,71
2018-09-13T00:11:54.946Z,71
2018-09-13T00:12:07.483Z,71
2018-09-13T00:12:19.875Z,71
2018-09-13T00:12:32.295Z,71
2018-09-13T00:12:44.836Z,71
2018-09-13T00:12:57.235Z,71
2018-09-13T00:13:09.660Z,71
2018-09-13T00:13:22.090Z,71
2018-09-13T00:13:34.485Z,71
2018-09-13T00:13:46.895Z,71
2018-09-13T00:13:59.301Z,71
2018-09-13T00:14:11.824Z,71
2018-09-13T00:14:24.223Z,71
2018-09-13T00:14:36.636Z,71
2018-09-13T00:14:49.450Z,71
2018-09-13T00:15:01.908Z,71
2018-09-13T00:15:14.297Z,71
2018-09-13T00:15:26.831Z,71
2018-09-13T00:15:39.245Z,71
2018-09-13T00:15:51.649Z,71
2018-09-13T00:16:04.060Z,71
2018-09-13T00:16:16.463Z,71
2018-09-13T00:16:28.862Z,71
2018-09-13T00:16:41.263Z,71
2018-09-13T00:16:53.680Z,71
2018-09-13T00:17:06.095Z,71
2018-09-13T00:17:18.515Z,71
2018-09-13T00:17:30.913Z,71
2018-09-13T00:17:43.328Z,72
2018-09-13T00:17:55.744Z,72
2018-09-13T00:18:08.134Z,72
2018-09-13T00:18:20.552Z,72
2018-09-13T00:18:33.009Z,72
2018-09-13T00:18:45.421Z,72
2018-09-13T00:18:57.854Z,72
2018-09-13T00:19:10.271Z,72
2018-09-13T00:19:22.683Z,72
2018-09-13T00:19:35.093Z,72
2018-09-13T00:19:47.530Z,72
2018-09-13T00:19:59.939Z,72
2018-09-13T00:20:12.398Z,72
2018-09-13T00:20:24.824Z,72
2018-09-13T00:20:37.264Z,72
2018-09-13T00:20:49.707Z,72
2018-09-13T00:21:02.431Z,72
2018-09-13T00:21:14.847Z,72
2018-09-13T00:21:27.245Z,72
2018-09-13T00:21:39.662Z,72
2018-09-13T00:21:52.106Z,72
2018-09-13T00:22:04.517Z,72
2018-09-13T00:22:16.926Z,72
2018-09-13T00:22:29.329Z,72
2018-09-13T00:22:41.721Z,72
2018-09-13T00:22:54.119Z,72
2018-09-13T00:23:06.524Z,72
2018-09-13T00:23:19.057Z,72
2018-09-13T00:23:31.477Z,72
2018-09-13T00:23:43.887Z,72
2018-09-13T00:23:56.322Z,72
2018-09-13T00:24:09.035Z,72
2018-09-13T00:24:21.452Z,72
2018-09-13T00:24:33.869Z,72
2018-09-13T00:24:46.299Z,72
2018-09-13T00:24:58.718Z,72
2018-09-13T00:25:11.143Z,72
2018-09-13T00:25:23.549Z,73
2018-09-13T00:25:35.968Z,73
2018-09-13T00:25:48.376Z,73
2018-09-13T00:26:00.794Z,73
2018-09-13T00:26:13.434Z,73
2018-09-13T00:26:25.836Z,73
2018-09-13T00:26:38.241Z,73
2018-09-13T00:26:50.666Z,73
2018-09-13T00:27:03.074Z,73
2018-09-13T00:27:15.463Z,73
2018-09-13T00:27:27.859Z,73
2018-09-13T00:27:40.301Z,73
2018-09-13T00:27:52.700Z,73
2018-09-13T00:28:05.263Z,73
2018-09-13T00:28:17.724Z,73
2018-09-13T00:28:30.150Z,73
2018-09-13T00:28:42.565Z,73
2018-09-13T00:28:54.972Z,73
2018-09-13T00:29:07.368Z,73
2018-09-13T00:29:19.769Z,73
2018-09-13T00:29:32.181Z,73
2018-09-13T00:29:44.591Z,73
2018-09-13T00:29:57.000Z,73
2018-09-13T00:30:09.415Z,73
2018-09-13T00:30:21.823Z,73
2018-09-13T00:30:34.247Z,73
2018-09-13T00:30:46.695Z,73
2018-09-13T00:30:59.104Z,73
2018-09-13T00:31:11.950Z,73
2018-09-13T00:31:24.370Z,74
2018-09-13T00:31:36.799Z,74
2018-09-13T00:31:49.199Z,74
2018-09-13T00:32:01.608Z,74
2018-09-13T00:32:14.141Z,74
2018-09-13T00:32:26.547Z,74
2018-09-13T00:32:38.941Z,74
2018-09-13T00:32:51.361Z,74
2018-09-13T00:33:03.781Z,75
2018-09-13T00:33:16.193Z,75
2018-09-13T00:33:28.604Z,75
2018-09-13T00:33:41.111Z,75
2018-09-13T00:33:53.523Z,75
2018-09-13T00:34:05.929Z,75
2018-09-13T00:34:18.304Z,75
2018-09-13T00:34:30.721Z,75
2018-09-13T00:34:43.126Z,75
2018-09-13T00:34:55.545Z,75
2018-09-13T00:35:07.957Z,75
2018-09-13T00:35:20.366Z,75
2018-09-13T00:35:32.750Z,75
2018-09-13T00:35:45.155Z,75
2018-09-13T00:35:57.582Z,75
2018-09-13T00:36:09.975Z,75
2018-09-13T00:36:22.455Z,75
2018-09-13T00:36:34.965Z,75
2018-09-13T00:36:47.367Z,75
2018-09-13T00:36:59.768Z,75
2018-09-13T00:37:12.171Z,75
2018-09-13T00:37:24.558Z,75
2018-09-13T00:37:37.014Z,75
2018-09-13T00:37:49.417Z,75
2018-09-13T00:38:01.878Z,75
2018-09-13T00:38:14.290Z,75
2018-09-13T00:38:26.756Z,75
2018-09-13T00:38:39.237Z,75
2018-09-13T00:38:51.633Z,75
2018-09-13T00:39:04.032Z,75
2018-09-13T00:39:16.431Z,75
2018-09-13T00:39:28.844Z,75
2018-09-13T00:39:41.294Z,75
2018-09-13T00:39:53.714Z,75
2018-09-13T00:40:06.108Z,75
2018-09-13T00:40:18.602Z,75
2018-09-13T00:40:31.028Z,75
2018-09-13T00:40:43.550Z,75
2018-09-13T00:40:55.954Z,75
2018-09-13T00:41:08.340Z,75
2018-09-13T00:41:20.737Z,75
2018-09-13T00:41:33.127Z,75
2018-09-13T00:41:45.528Z,75
2018-09-13T00:41:57.928Z,75
2018-09-13T00:42:10.324Z,75
2018-09-13T00:42:22.742Z,75
2018-09-13T00:42:35.139Z,75
2018-09-13T00:42:47.556Z,75
2018-09-13T00:42:59.953Z,75
2018-09-13T00:43:12.349Z,75
2018-09-13T00:43:24.744Z,75
2018-09-13T00:43:37.162Z,75
2018-09-13T00:43:49.566Z,75
2018-09-13T00:44:01.960Z,75
2018-09-13T00:44:14.356Z,75
2018-09-13T00:44:26.771Z,75
2018-09-13T00:44:39.185Z,75
2018-09-13T00:44:51.574Z,75
2018-09-13T00:45:04.000Z,75
2018-09-13T00:45:16.440Z,75
2018-09-13T00:45:28.837Z,75
2018-09-13T00:45:41.231Z,75
2018-09-13T00:45:53.631Z,76
2018-09-13T00:46:06.033Z,76
2018-09-13T00:46:18.433Z,76
2018-09-13T00:46:30.835Z,76
2018-09-13T00:46:43.231Z,76
2018-09-13T00:46:55.619Z,76
2018-09-13T00:47:08.041Z,76
2018-09-13T00:47:20.480Z,76
2018-09-13T00:47:32.919Z,76
2018-09-13T00:47:45.322Z,76
2018-09-13T00:47:57.707Z,76
2018-09-13T00:48:10.130Z,76
2018-09-13T00:48:22.516Z,76
2018-09-13T00:48:34.928Z,76
2018-09-13T00:48:47.540Z,76
2018-09-13T00:48:59.946Z,76
2018-09-13T00:49:12.366Z,76
2018-09-13T00:49:24.971Z,76
2018-09-13T00:49:37.359Z,76
2018-09-13T00:49:49.747Z,76
2018-09-13T00:50:02.154Z,76
2018-09-13T00:50:14.570Z,76
2018-09-13T00:50:26.958Z,76
2018-09-13T00:50:39.378Z,76
2018-09-13T00:50:51.784Z,76
2018-09-13T00:51:04.198Z,76
2018-09-13T00:51:16.600Z,76
2018-09-13T00:51:28.987Z,76
2018-09-13T00:51:41.374Z,76
2018-09-13T00:51:53.767Z,76
2018-09-13T00:52:06.145Z,76
2018-09-13T00:52:18.529Z,76
2018-09-13T00:52:30.935Z,76
2018-09-13T00:52:43.341Z,76
2018-09-13T00:52:55.728Z,76
2018-09-13T00:53:08.162Z,76
2018-09-13T00:53:20.761Z,76
2018-09-13T00:53:33.165Z,76
2018-09-13T00:53:45.563Z,76
2018-09-13T00:53:57.969Z,76
2018-09-13T00:54:10.368Z,76
2018-09-13T00:54:22.763Z,76
2018-09-13T00:54:35.196Z,76
2018-09-13T00:54:47.610Z,76
2018-09-13T00:55:00.018Z,76
2018-09-13T00:55:12.426Z,76
2018-09-13T00:55:24.805Z,76
2018-09-13T00:55:37.205Z,76
2018-09-13T00:55:49.606Z,76
2018-09-13T00:56:02.015Z,76
2018-09-13T00:56:14.412Z,76
2018-09-13T00:56:26.800Z,76
2018-09-13T00:56:39.247Z,76
2018-09-13T00:56:51.650Z,76
2018-09-13T00:57:04.174Z,76
2018-09-13T00:57:16.633Z,76
2018-09-13T00:57:29.020Z,76
2018-09-13T00:57:41.431Z,76
2018-09-13T00:57:53.843Z,76
2018-09-13T00:58:06.624Z,76
2018-09-13T00:58:19.024Z,76
2018-09-13T00:58:31.433Z,76
2018-09-13T00:58:44.184Z,76
2018-09-13T00:58:57.008Z,76
2018-09-13T00:59:10.560Z,76
2018-09-13T00:59:22.996Z,76
2018-09-13T00:59:35.392Z,76
2018-09-13T00:59:47.799Z,76
2018-09-13T01:00:00.207Z,76
2018-09-13T01:00:12.621Z,76
2018-09-13T01:00:25.182Z,76
2018-09-13T01:00:37.641Z,76
2018-09-13T01:00:50.065Z,76
2018-09-13T01:01:02.486Z,76
2018-09-13T01:01:14.892Z,76
2018-09-13T01:01:27.313Z,76
2018-09-13T01:01:39.725Z,76
2018-09-13T01:01:52.141Z,76
2018-09-13T01:02:04.555Z,76
2018-09-13T01:02:16.957Z,76
2018-09-13T01:02:29.371Z,76
2018-09-13T01:02:41.824Z,76
2018-09-13T01:02:54.224Z,76
2018-09-13T01:03:06.627Z,76
2018-09-13T01:03:19.220Z,76
2018-09-13T01:03:31.625Z,76
2018-09-13T01:03:44.037Z,76
2018-09-13T01:03:56.459Z,76
2018-09-13T01:04:08.878Z,76
2018-09-13T01:04:21.283Z,76
2018-09-13T01:04:33.694Z,76
2018-09-13T01:04:46.158Z,76
2018-09-13T01:04:58.700Z,76
2018-09-13T01:05:11.116Z,76
2018-09-13T01:05:23.531Z,76
2018-09-13T01:05:35.955Z,76
2018-09-13T01:05:48.404Z,76
2018-09-13T01:06:00.821Z,76
2018-09-13T01:06:13.251Z,76
2018-09-13T01:06:25.667Z,76
2018-09-13T01:06:38.221Z,76
2018-09-13T01:06:50.626Z,76
2018-09-13T01:07:03.088Z,76
2018-09-13T01:07:15.493Z,76
2018-09-13T01:07:27.895Z,76
2018-09-13T01:07:40.278Z,76
2018-09-13T01:07:52.687Z,76
2018-09-13T01:08:05.105Z,76
2018-09-13T01:08:17.516Z,76
2018-09-13T01:08:29.931Z,76
2018-09-13T01:08:42.338Z,76
2018-09-13T01:08:54.734Z,76
2018-09-13T01:09:07.143Z,76
2018-09-13T01:09:19.565Z,76
2018-09-13T01:09:31.991Z,76
2018-09-13T01:09:44.389Z,76
2018-09-13T01:09:56.781Z,76
2018-09-13T01:10:09.214Z,76
2018-09-13T01:10:21.837Z,76
2018-09-13T01:10:34.247Z,76
2018-09-13T01:10:46.642Z,76
2018-09-13T01:10:59.056Z,76
2018-09-13T01:11:11.439Z,76
2018-09-13T01:11:24.191Z,76
2018-09-13T01:11:36.593Z,76
2018-09-13T01:11:49.192Z,76
2018-09-13T01:12:01.610Z,76
2018-09-13T01:12:14.218Z,76
2018-09-13T01:12:26.669Z,76
2018-09-13T01:12:39.084Z,76
2018-09-13T01:12:51.490Z,76
2018-09-13T01:13:03.921Z,76
2018-09-13T01:13:16.332Z,76
2018-09-13T01:13:28.776Z,76
2018-09-13T01:13:41.173Z,76
2018-09-13T01:13:53.572Z,76
2018-09-13T01:14:05.974Z,76
2018-09-13T01:14:18.373Z,76
2018-09-13T01:14:30.779Z,76
2018-09-13T01:14:43.194Z,76
2018-09-13T01:14:55.587Z,76
2018-09-13T01:15:07.988Z,76
2018-09-13T01:15:20.426Z,76
2018-09-13T01:15:32.831Z,76
2018-09-13T01:15:45.293Z,76
2018-09-13T01:15:57.698Z,76
2018-09-13T01:16:10.110Z,76
2018-09-13T01:16:22.485Z,76
2018-09-13T01:16:34.910Z,76
2018-09-13T01:16:47.342Z,76
2018-09-13T01:16:59.733Z,76
2018-09-13T01:17:12.143Z,76
2018-09-13T01:17:24.536Z,76
2018-09-13T01:17:36.927Z,76
2018-09-13T01:17:49.313Z,76
2018-09-13T01:18:01.715Z,76
2018-09-13T01:18:14.269Z,76
2018-09-13T01:18:26.693Z,76
2018-09-13T01:18:39.093Z,76
2018-09-13T01:18:51.534Z,76
2018-09-13T01:19:03.943Z,76
2018-09-13T01:19:16.320Z,76
2018-09-13T01:19:28.732Z,76
2018-09-13T01:19:41.133Z,76
2018-09-13T01:19:53.535Z,76
2018-09-13T01:20:05.926Z,76
2018-09-13T01:20:18.317Z,76
2018-09-13T01:20:30.710Z,76
2018-09-13T01:20:43.091Z,76
2018-09-13T01:20:55.477Z,76
2018-09-13T01:21:08.018Z,76
2018-09-13T01:21:20.432Z,76
2018-09-13T01:21:32.833Z,76
2018-09-13T01:21:45.306Z,76
2018-09-13T01:21:57.706Z,76
2018-09-13T01:22:10.135Z,76
2018-09-13T01:22:22.524Z,76
2018-09-13T01:22:35.185Z,76
2018-09-13T01:22:47.602Z,76
2018-09-13T01:23:00.000Z,76
2018-09-13T01:23:12.543Z,76
2018-09-13T01:23:24.938Z,76
2018-09-13T01:23:37.323Z,76
2018-09-13T01:23:49.732Z,76
2018-09-13T01:24:02.346Z,76
2018-09-13T01:24:14.737Z,76
2018-09-13T01:24:27.136Z,76
2018-09-13T01:24:39.668Z,76
2018-09-13T01:24:52.068Z,76
2018-09-13T01:25:04.496Z,76
2018-09-13T01:25:16.878Z,76
2018-09-13T01:25:29.301Z,76
2018-09-13T01:25:41.692Z,76
2018-09-13T01:25:54.082Z,76
2018-09-13T01:26:06.463Z,76
2018-09-13T01:26:18.854Z,76
2018-09-13T01:26:31.280Z,76
2018-09-13T01:26:43.671Z,76
2018-09-13T01:26:56.304Z,76
2018-09-13T01:27:08.728Z,76
2018-09-13T01:27:21.152Z,76
2018-09-13T01:27:33.600Z,76
2018-09-13T01:27:46.005Z,76
2018-09-13T01:27:58.400Z,76
2018-09-13T01:28:10.805Z,76
2018-09-13T01:28:23.213Z,76
2018-09-13T01:28:35.622Z,76
2018-09-13T01:28:48.027Z,76
2018-09-13T01:29:00.448Z,76
2018-09-13T01:29:12.871Z,76
2018-09-13T01:29:25.263Z,76
2018-09-13T01:29:37.664Z,76
2018-09-13T01:29:50.059Z,76
2018-09-13T01:30:02.501Z,76
2018-09-13T01:30:14.902Z,76
2018-09-13T01:30:27.304Z,76
2018-09-13T01:30:39.695Z,76
2018-09-13T01:30:52.240Z,76
2018-09-13T01:31:04.696Z,76
2018-09-13T01:31:17.123Z,76
2018-09-13T01:31:29.532Z,76
2018-09-13T01:31:41.938Z,76
2018-09-13T01:31:54.316Z,76
2018-09-13T01:32:06.744Z,76
2018-09-13T01:32:19.159Z,76
2018-09-13T01:32:31.562Z,76
2018-09-13T01:32:43.980Z,76
2018-09-13T01:32:56.395Z,76
2018-09-13T01:33:08.839Z,76
2018-09-13T01:33:21.250Z,76
2018-09-13T01:33:33.638Z,76
2018-09-13T01:33:46.141Z,76
2018-09-13T01:33:58.592Z,76
2018-09-13T01:34:10.993Z,76
2018-09-13T01:34:23.383Z,76
2018-09-13T01:34:35.813Z,76
2018-09-13T01:34:48.233Z,76
2018-09-13T01:35:00.651Z,76
2018-09-13T01:35:13.041Z,76
2018-09-13T01:35:25.440Z,77
2018-09-13T01:35:37.968Z,77
2018-09-13T01:35:50.349Z,77
2018-09-13T01:36:02.753Z,77
2018-09-13T01:36:15.137Z,77
2018-09-13T01:36:27.528Z,77
2018-09-13T01:36:39.943Z,77
2018-09-13T01:36:52.344Z,77
2018-09-13T01:37:04.735Z,77
2018-09-13T01:37:17.132Z,77
2018-09-13T01:37:29.525Z,77
2018-09-13T01:37:41.947Z,77
2018-09-13T01:37:54.366Z,77
2018-09-13T01:38:06.790Z,77
2018-09-13T01:38:19.197Z,77
2018-09-13T01:38:31.623Z,77
2018-09-13T01:38:44.017Z,77
2018-09-13T01:38:56.404Z,77
2018-09-13T01:39:08.847Z,77
2018-09-13T01:39:21.281Z,77
2018-09-13T01:39:34.020Z,77
2018-09-13T01:39:46.424Z,77
2018-09-13T01:39:58.845Z,77
2018-09-13T01:40:11.605Z,77
2018-09-13T01:40:23.992Z,77
2018-09-13T01:40:36.427Z,77
2018-09-13T01:40:48.821Z,77
2018-09-13T01:41:01.243Z,77
2018-09-13T01:41:13.637Z,77
2018-09-13T01:41:26.034Z,77
2018-09-13T01:41:38.431Z,77
2018-09-13T01:41:50.844Z,77
2018-09-13T01:42:03.236Z,77
2018-09-13T01:42:15.638Z,77
2018-09-13T01:42:28.049Z,77
2018-09-13T01:42:40.460Z,77
2018-09-13T01:42:52.864Z,77
2018-09-13T01:43:05.272Z,78
2018-09-13T01:43:17.667Z,78
2018-09-13T01:43:30.129Z,78
2018-09-13T01:43:42.515Z,78
2018-09-13T01:43:54.914Z,78
2018-09-13T01:44:07.304Z,78
2018-09-13T01:44:19.715Z,78
2018-09-13T01:44:32.207Z,78
2018-09-13T01:44:44.614Z,78
2018-09-13T01:44:57.007Z,78
2018-09-13T01:45:09.416Z,78
2018-09-13T01:45:21.808Z,78
2018-09-13T01:45:34.184Z,78
2018-09-13T01:45:46.582Z,78
2018-09-13T01:45:58.973Z,78
2018-09-13T01:46:11.368Z,78
2018-09-13T01:46:23.769Z,78
2018-09-13T01:46:36.167Z,78
2018-09-13T01:46:48.591Z,78
2018-09-13T01:47:00.984Z,78
2018-09-13T01:47:13.381Z,78
2018-09-13T01:47:25.801Z,78
2018-09-13T01:47:38.212Z,78
2018-09-13T01:47:50.617Z,78
2018-09-13T01:48:03.017Z,78
2018-09-13T01:48:15.395Z,78
2018-09-13T01:48:27.792Z,78
2018-09-13T01:48:40.201Z,78
2018-09-13T01:48:52.741Z,78
2018-09-13T01:49:05.146Z,78
2018-09-13T01:49:17.675Z,78
2018-09-13T01:49:30.076Z,78
2018-09-13T01:49:42.451Z,78
2018-09-13T01:49:54.887Z,78
2018-09-13T01:50:07.313Z,78
2018-09-13T01:50:19.691Z,78
2018-09-13T01:50:32.142Z,78
2018-09-13T01:50:44.562Z,78
2018-09-13T01:50:56.950Z,78
2018-09-13T01:51:09.332Z,78
2018-09-13T01:51:21.731Z,78
2018-09-13T01:51:34.120Z,78
2018-09-13T01:51:46.524Z,78
2018-09-13T01:51:58.930Z,78
2018-09-13T01:52:11.324Z,78
2018-09-13T01:52:23.744Z,78
2018-09-13T01:52:36.130Z,79
2018-09-13T01:52:48.520Z,79
2018-09-13T01:53:00.927Z,79
2018-09-13T01:53:13.323Z,79
2018-09-13T01:53:26.016Z,78
2018-09-13T01:53:38.590Z,78
2018-09-13T01:53:50.993Z,78
2018-09-13T01:54:03.378Z,78
2018-09-13T01:54:15.777Z,78
2018-09-13T01:54:28.166Z,78
2018-09-13T01:54:40.570Z,78
2018-09-13T01:54:52.958Z,78
2018-09-13T01:55:05.374Z,78
2018-09-13T01:55:17.765Z,78
2018-09-13T01:55:30.179Z,78
2018-09-13T01:55:42.586Z,78
2018-09-13T01:55:54.959Z,78
2018-09-13T01:56:07.350Z,78
2018-09-13T01:56:19.760Z,78
2018-09-13T01:56:32.160Z,78
2018-09-13T01:56:44.599Z,79
2018-09-13T01:56:57.023Z,79
2018-09-13T01:57:09.466Z,79
2018-09-13T01:57:21.864Z,79
2018-09-13T01:57:34.268Z,79
2018-09-13T01:57:46.681Z,79
2018-09-13T01:57:59.082Z,79
2018-09-13T01:58:11.503Z,79
2018-09-13T01:58:24.002Z,79
2018-09-13T01:58:36.407Z,79
2018-09-13T01:58:49.090Z,79
2018-09-13T01:59:01.486Z,79
2018-09-13T01:59:13.870Z,79
2018-09-13T01:59:26.270Z,79
2018-09-13T01:59:38.657Z,79
2018-09-13T01:59:51.062Z,79
2018-09-13T02:00:03.474Z,79
2018-09-13T02:00:15.896Z,79
2018-09-13T02:00:28.325Z,79
2018-09-13T02:00:40.752Z,79
2018-09-13T02:00:53.170Z,79
2018-09-13T02:01:05.667Z,78
2018-09-13T02:01:18.093Z,78
2018-09-13T02:01:30.656Z,78
2018-09-13T02:01:43.056Z,78
2018-09-13T02:01:55.465Z,79
2018-09-13T02:02:07.880Z,79
2018-09-13T02:02:20.284Z,79
2018-09-13T02:02:32.716Z,79
2018-09-13T02:02:45.112Z,78
2018-09-13T02:02:57.524Z,78
2018-09-13T02:03:09.926Z,78
2018-09-13T02:03:22.463Z,78
2018-09-13T02:03:34.866Z,78
2018-09-13T02:03:47.361Z,78
2018-09-13T02:03:59.768Z,78
2018-09-13T02:04:12.227Z,78
2018-09-13T02:04:24.628Z,78
2018-09-13T02:04:37.059Z,78
2018-09-13T02:04:49.483Z,78
2018-09-13T02:05:02.058Z,78
2018-09-13T02:05:14.485Z,78
2018-09-13T02:05:26.869Z,78
2018-09-13T02:05:39.253Z,78
2018-09-13T02:05:51.663Z,78
2018-09-13T02:06:04.071Z,78
2018-09-13T02:06:16.469Z,78
2018-09-13T02:06:28.870Z,78
2018-09-13T02:06:41.470Z,78
2018-09-13T02:06:53.877Z,78
2018-09-13T02:07:06.273Z,78
2018-09-13T02:07:18.678Z,78
2018-09-13T02:07:31.081Z,78
2018-09-13T02:07:43.548Z,78
2018-09-13T02:07:55.957Z,78
2018-09-13T02:08:08.370Z,78
2018-09-13T02:08:20.788Z,78
2018-09-13T02:08:33.198Z,78
2018-09-13T02:08:45.607Z,78
2018-09-13T02:08:58.000Z,78
2018-09-13T02:09:10.386Z,78
2018-09-13T02:09:22.784Z,78
2018-09-13T02:09:35.207Z,78
2018-09-13T02:09:47.616Z,78
2018-09-13T02:10:00.008Z,78
2018-09-13T02:10:12.400Z,78
2018-09-13T02:10:24.927Z,78
2018-09-13T02:10:37.375Z,78
2018-09-13T02:10:49.799Z,78
2018-09-13T02:11:02.219Z,78
2018-09-13T02:11:14.614Z,78
2018-09-13T02:11:27.376Z,78
2018-09-13T02:11:39.859Z,78
2018-09-13T02:11:52.263Z,78
2018-09-13T02:12:04.692Z,78
2018-09-13T02:12:17.162Z,78
2018-09-13T02:12:29.576Z,78
2018-09-13T02:12:41.970Z,78
2018-09-13T02:12:54.382Z,78
2018-09-13T02:13:06.787Z,78
2018-09-13T02:13:19.204Z,78
2018-09-13T02:13:31.631Z,78
2018-09-13T02:13:44.035Z,78
2018-09-13T02:13:56.483Z,78
2018-09-13T02:14:08.881Z,78
2018-09-13T02:14:21.299Z,78
2018-09-13T02:14:33.736Z,78
2018-09-13T02:14:47.168Z,78
2018-09-13T02:14:59.572Z,78
2018-09-13T02:15:11.981Z,78
2018-09-13T02:15:24.382Z,78
2018-09-13T02:15:36.773Z,78
2018-09-13T02:15:49.179Z,78
2018-09-13T02:16:01.598Z,78
2018-09-13T02:16:14.015Z,78
2018-09-13T02:16:26.439Z,78
2018-09-13T02:16:39.339Z,78
2018-09-13T02:16:51.762Z,78
2018-09-13T02:17:04.163Z,78
2018-09-13T02:17:16.601Z,78
2018-09-13T02:17:29.015Z,78
2018-09-13T02:17:41.470Z,78
2018-09-13T02:17:53.905Z,78
2018-09-13T02:18:06.367Z,78
2018-09-13T02:18:18.767Z,78
2018-09-13T02:18:31.158Z,78
2018-09-13T02:18:43.553Z,78
2018-09-13T02:18:55.952Z,78
2018-09-13T02:19:08.361Z,78
2018-09-13T02:19:20.765Z,78
2018-09-13T02:19:33.179Z,78
2018-09-13T02:19:45.572Z,78
2018-09-13T02:19:58.023Z,78
2018-09-13T02:20:10.440Z,78
2018-09-13T02:20:22.840Z,78
2018-09-13T02:20:35.241Z,78
2018-09-13T02:20:47.637Z,78
2018-09-13T02:21:00.142Z,78
2018-09-13T02:21:12.535Z,78
2018-09-13T02:21:24.930Z,78
2018-09-13T02:21:37.728Z,78
2018-09-13T02:21:50.129Z,78
2018-09-13T02:22:02.540Z,78
2018-09-13T02:22:14.949Z,78
2018-09-13T02:22:27.362Z,78
2018-09-13T02:22:39.839Z,78
2018-09-13T02:22:52.274Z,78
2018-09-13T02:23:04.679Z,78
2018-09-13T02:23:17.182Z,78
2018-09-13T02:23:29.573Z,78
2018-09-13T02:23:42.000Z,78
2018-09-13T02:23:54.479Z,78
2018-09-13T02:24:07.026Z,78
2018-09-13T02:24:19.432Z,78
2018-09-13T02:24:31.814Z,78
2018-09-13T02:24:44.211Z,78
2018-09-13T02:24:56.628Z,78
2018-09-13T02:25:09.035Z,78
2018-09-13T02:25:21.702Z,78
2018-09-13T02:25:34.118Z,78
2018-09-13T02:25:46.640Z,78
2018-09-13T02:25:59.037Z,78
2018-09-13T02:26:11.441Z,78
2018-09-13T02:26:23.831Z,78
2018-09-13T02:26:36.241Z,78
2018-09-13T02:26:48.657Z,78
2018-09-13T02:27:01.047Z,78
2018-09-13T02:27:13.450Z,78
2018-09-13T02:27:25.865Z,78
2018-09-13T02:27:38.277Z,78
2018-09-13T02:27:50.711Z,78
2018-09-13T02:28:03.140Z,78
2018-09-13T02:28:15.552Z,78
2018-09-13T02:28:27.952Z,78
2018-09-13T02:28:40.330Z,78
2018-09-13T02:28:52.741Z,78
2018-09-13T02:29:05.161Z,78
2018-09-13T02:29:17.582Z,78
2018-09-13T02:29:30.001Z,78
2018-09-13T02:29:42.507Z,78
2018-09-13T02:29:54.911Z,78
2018-09-13T02:30:07.395Z,78
2018-09-13T02:30:19.816Z,78
2018-09-13T02:30:32.429Z,78
2018-09-13T02:30:44.848Z,78
2018-09-13T02:30:57.252Z,78
2018-09-13T02:31:09.652Z,78
2018-09-13T02:31:22.076Z,78
2018-09-13T02:31:34.506Z,78
2018-09-13T02:31:46.994Z,78
2018-09-13T02:31:59.430Z,78
2018-09-13T02:32:12.004Z,78
2018-09-13T02:32:24.417Z,78
2018-09-13T02:32:36.858Z,78
2018-09-13T02:32:49.278Z,78
2018-09-13T02:33:01.683Z,78
2018-09-13T02:33:14.103Z,78
2018-09-13T02:33:26.531Z,78
2018-09-13T02:33:39.239Z,78
2018-09-13T02:33:51.655Z,78
2018-09-13T02:34:04.078Z,78
2018-09-13T02:34:16.479Z,78
2018-09-13T02:34:28.889Z,78
2018-09-13T02:34:41.297Z,78
2018-09-13T02:34:53.697Z,78
2018-09-13T02:35:06.096Z,78
2018-09-13T02:35:18.490Z,78
2018-09-13T02:35:30.908Z,78
2018-09-13T02:35:43.322Z,78
2018-09-13T02:35:55.742Z,78
2018-09-13T02:36:08.151Z,79
2018-09-13T02:36:20.563Z,79
2018-09-13T02:36:32.966Z,79
2018-09-13T02:36:45.433Z,79
2018-09-13T02:36:57.878Z,78
2018-09-13T02:37:10.306Z,78
2018-09-13T02:37:22.733Z,78
2018-09-13T02:37:35.161Z,78
2018-09-13T02:37:47.569Z,78
2018-09-13T02:37:59.948Z,78
2018-09-13T02:38:12.399Z,78
2018-09-13T02:38:24.808Z,78
2018-09-13T02:38:37.268Z,78
2018-09-13T02:38:49.686Z,78
2018-09-13T02:39:02.107Z,78
2018-09-13T02:39:14.504Z,78
2018-09-13T02:39:26.916Z,78
2018-09-13T02:39:39.339Z,78
2018-09-13T02:39:51.742Z,78
2018-09-13T02:40:04.154Z,78
2018-09-13T02:40:16.697Z,78
2018-09-13T02:40:29.113Z,78
2018-09-13T02:40:41.517Z,78
2018-09-13T02:40:53.939Z,78
2018-09-13T02:41:06.339Z,78
2018-09-13T02:41:18.765Z,78
2018-09-13T02:41:31.167Z,78
2018-09-13T02:41:43.601Z,78
2018-09-13T02:41:56.003Z,78
2018-09-13T02:42:08.507Z,78
2018-09-13T02:42:20.967Z,78
2018-09-13T02:42:33.396Z,78
2018-09-13T02:42:45.833Z,78
2018-09-13T02:42:58.232Z,78
2018-09-13T02:43:10.647Z,78
2018-09-13T02:43:23.108Z,78
2018-09-13T02:43:35.556Z,78
2018-09-13T02:43:48.110Z,78
2018-09-13T02:44:00.545Z,78
2018-09-13T02:44:13.212Z,78
2018-09-13T02:44:25.651Z,78
2018-09-13T02:44:38.079Z,78
2018-09-13T02:44:50.485Z,78
2018-09-13T02:45:02.945Z,78
2018-09-13T02:45:15.355Z,78
2018-09-13T02:45:27.762Z,78
2018-09-13T02:45:40.169Z,78
2018-09-13T02:45:52.573Z,78
2018-09-13T02:46:04.966Z,78
2018-09-13T02:46:17.387Z,78
2018-09-13T02:46:29.794Z,78
2018-09-13T02:46:42.192Z,78
2018-09-13T02:46:54.620Z,78
2018-09-13T02:47:07.071Z,78
2018-09-13T02:47:19.483Z,78
2018-09-13T02:47:31.897Z,78
2018-09-13T02:47:44.321Z,78
2018-09-13T02:47:56.729Z,78
2018-09-13T02:48:09.156Z,78
2018-09-13T02:48:21.553Z,78
2018-09-13T02:48:34.008Z,78
2018-09-13T02:48:46.449Z,78
2018-09-13T02:48:58.964Z,78
2018-09-13T02:49:12.194Z,78
2018-09-13T02:49:26.077Z,78
2018-09-13T02:49:38.488Z,78
2018-09-13T02:49:50.918Z,78
2018-09-13T02:50:03.365Z,78
2018-09-13T02:50:15.795Z,78
2018-09-13T02:50:28.221Z,78
2018-09-13T02:50:40.641Z,78
2018-09-13T02:50:53.090Z,78
2018-09-13T02:51:05.510Z,78
2018-09-13T02:51:17.959Z,78
2018-09-13T02:51:30.376Z,78
2018-09-13T02:51:42.796Z,78
2018-09-13T02:51:55.249Z,78
2018-09-13T02:52:07.660Z,78
2018-09-13T02:52:20.057Z,78
2018-09-13T02:52:32.463Z,78
2018-09-13T02:52:44.878Z,78
2018-09-13T02:52:57.282Z,78
2018-09-13T02:53:09.722Z,78
2018-09-13T02:53:22.236Z,78
2018-09-13T02:53:34.640Z,78
2018-09-13T02:53:47.036Z,78
2018-09-13T02:53:59.443Z,78
2018-09-13T02:54:11.850Z,78
2018-09-13T02:54:24.295Z,78
2018-09-13T02:54:36.694Z,78
2018-09-13T02:54:49.127Z,78
2018-09-13T02:55:01.581Z,78
2018-09-13T02:55:14.000Z,78
2018-09-13T02:55:26.424Z,78
2018-09-13T02:55:38.851Z,78
2018-09-13T02:55:51.261Z,78
2018-09-13T02:56:03.690Z,78
2018-09-13T02:56:16.122Z,78
2018-09-13T02:56:28.533Z,78
2018-09-13T02:56:40.962Z,78
2018-09-13T02:56:53.367Z,78
2018-09-13T02:57:05.829Z,78
2018-09-13T02:57:18.265Z,78